• Join FlightAware (Why Join?)
  • Login
  • US Flag 
09:06PM EST


 

Airport Tracker/Info


-or-


 

Live Flight TrackerFlight Track Log ✈ SWA825 ✈ 03-May-2013 ✈ KMCI - KMDW

Flight Track Log - Related Links

Times and Time Zones

All times are in EDT time to prevent confusion due to time zone crossing. See the SWA825 flight status page for this flight to view local times or setup timezone preferences in your user account.

Time Position Orientation Groundspeed Altitude Reporting Facility
EDT Latitude Longitude Course Direction KTS MPH feet Rate Location/Type
08:12AM 39.3167 -94.7167 23° Northeast 162 186 2,000  Level Kansas City TRACON
08:13AM 39.3336 -94.7072 23° Northeast 161 185 3,600 2,474 Climbing Kansas City Center
08:14AM 39.3825 -94.6556 39° Northeast 217 250 6,000 3,000 Climbing Kansas City Center
08:15AM 39.4286 -94.5922 47° Northeast 250 288 9,700 3,049 Climbing Kansas City Center
08:16AM 39.4831 -94.5181 46° Northeast 306 352 12,200 2,656 Climbing Kansas City Center
08:17AM 39.5556 -94.4147 48° Northeast 346 398 15,100 2,705 Climbing Kansas City Center
08:18AM 39.6314 -94.3203 44° Northeast 397 457 17,700 3,148 Climbing Kansas City Center
08:19AM 39.7267 -94.2111 41° Northeast 409 471 21,500 2,976 Climbing Kansas City Center
08:20AM 39.7986 -94.1047 49° Northeast 411 473 23,800 2,341 Climbing Kansas City Center
08:21AM 39.8514 -93.9739 62° Northeast 407 468 26,300 2,459 Climbing Kansas City Center
08:22AM 39.8794 -93.8331 75° East 404 465 28,800 2,262 Climbing Kansas City Center
08:23AM 39.9100 -93.6931 74° East 403 464 30,900 1,131 Climbing Kansas City Center
08:24AM 39.9417 -93.5506 74° East 411 473 31,100 836 Climbing Kansas City Center
08:25AM 39.9742 -93.3994 74° East 432 497 32,600 1,721 Climbing Kansas City Center
08:26AM 40.0050 -93.2447 75° East 441 507 34,600 2,016 Climbing Kansas City Center
08:27AM 40.0453 -93.0658 74° East 434 499 36,700 1,171 Climbing Kansas City Center
08:28AM 40.0767 -92.9136 75° East 439 505 37,000 146 Climbing Kansas City Center
08:29AM 40.1075 -92.7633 75° East 446 513 37,000  Level Kansas City Center
08:30AM 40.1425 -92.5875 75° East 447 514 37,000  Level Kansas City Center
08:31AM 40.1733 -92.4394 75° East 441 507 37,000 -246 Level Kansas City Center
08:32AM 40.2019 -92.3036 75° East 438 504 36,500 -836 Descending Kansas City Center
08:33AM 40.2375 -92.1244 75° East 430 495 35,300 -738 Descending Kansas City Center
08:34AM 40.2675 -91.9736 75° East 432 497 35,000 -148 Descending Kansas City Center
08:35AM 40.2967 -91.8228 76° East 431 496 35,000  Level Kansas City Center
08:36AM 40.3264 -91.6719 75° East 430 495 35,000  Level Kansas City Center
08:37AM 40.3550 -91.5225 76° East 427 491 35,000  Level Kansas City Center
08:38AM 40.3831 -91.3719 76° East 428 493 35,000 -98 Level Kansas City Center
08:39AM 40.4125 -91.2247 75° East 427 491 34,800 -1,475 Descending Kansas City Center
08:40AM 40.4472 -91.0464 76° East 420 483 32,000 -1,869 Descending Kansas City Center
08:41AM 40.4758 -90.9039 75° East 412 474 31,000 -537 Descending Kansas City Center
08:42AM 40.5033 -90.7592 76° East 409 471 30,900 -582 Descending Kansas City Center
08:43AM 40.5356 -90.5869 76° East 406 467 29,700 -985 Descending Chicago Center
08:44AM 40.5611 -90.4456 77° East 400 460 28,700 -968 Descending Chicago Center
08:45AM 40.5875 -90.3033 76° East 400 460 27,700 -1,024 Descending Chicago Center
08:46AM 40.6161 -90.1494 76° East 395 455 26,600 -1,024 Descending Chicago Center
08:47AM 40.6408 -90.0125 77° East 389 448 25,600 -976 Descending Chicago Center
08:48AM 40.6644 -89.8764 77° East 384 442 24,600 -976 Descending Chicago Center
08:49AM 40.6953 -89.7458 73° East 378 435 23,600 -968 Descending Chicago Center
08:50AM 40.7550 -89.6183 58° Northeast 409 471 22,600 -1,707 Descending Chicago Center
08:51AM 40.8139 -89.4822 60° Northeast 417 480 20,100 -2,390 Descending Chicago Center
08:53AM 40.8697 -89.3533 60° Northeast 406 467 17,700 -1,512 Descending Chicago Center
08:54AM 40.9353 -89.2006 60° Northeast 396 456 17,000 -829 Descending Chicago Center
08:55AM 40.9889 -89.0725 61° Northeast 398 458 16,000 -968 Descending Chicago Center
08:56AM 41.0464 -88.9564 57° Northeast 391 450 15,000 -927 Descending Chicago Center
08:57AM 41.1275 -88.8572 43° Northeast 391 450 14,100 -1,024 Descending Chicago Center
08:58AM 41.2050 -88.7564 44° Northeast 390 449 12,900 -1,452 Descending Chicago Center
08:59AM 41.2806 -88.6622 43° Northeast 375 432 11,100 -1,463 Descending Chicago Center
09:00AM 41.3194 -88.5378 67° East 308 354 9,900 -1,317 Descending Chicago Center
09:01AM 41.3308 -88.4325 82° East 289 333 8,400 -1,317 Descending Chicago Center
09:02AM 41.3419 -88.3311 82° East 282 325 7,200 -1,171 Descending Chicago Center
09:03AM 41.3925 -88.2511 50° Northeast 284 327 6,000 -581 Descending Chicago Center
09:04AM 41.4503 -88.1783 43° Northeast 282 325 6,000  Level Chicago Center
09:05AM 41.5064 -88.1014 46° Northeast 282 325 6,000 -293 Level Chicago Center
09:06AM 41.5647 -88.0292 43° Northeast 282 325 5,400 -484 Descending Chicago Center
09:07AM 41.6175 -87.9636 43° Northeast 271 312 5,000 -823 Descending Chicago Center
09:08AM 41.6675 -87.9011 43° Northeast 259 298 3,700 -1,425 Descending Chicago Center
09:08AM 41.6833 -87.8667 58° Northeast 232 267 3,100 -1,333 Descending Chicago TRACON
09:09AM 41.7333 -87.8333 26° Northeast 186 214 2,100 -950 Descending Chicago TRACON
09:10AM 41.7500 -87.7833 66° East 128 147 1,200 -818 Descending Chicago TRACON